Time;durP1;ratioP1;P1;durP2;ratioP2;P2;SDS_P1;SDS_P2;PMS_P1;PMS_P2;Temp;Humidity;BMP_temperature;BMP_pressure;BME280_temperature;BME280_humidity;BME280_pressure;Samples;Min_cycle;Max_cycle;Signal;HPM_P1;HPM_P2
2023/05/27 00:01:46;;;;;;;13.38;4.65;;;7.50;99.90;;;;;;5079503;28;20459;-65
2023/05/27 00:04:12;;;;;;;13.38;4.25;;;7.40;99.90;;;;;;5047443;28;20037;-66
2023/05/27 00:06:37;;;;;;;19.40;6.15;;;7.30;99.90;;;;;;5042255;28;20063;-65
2023/05/27 00:09:03;;;;;;;20.13;5.75;;;7.20;99.90;;;;;;5037058;28;20045;-65
2023/05/27 00:11:29;;;;;;;18.98;5.90;;;7.10;99.90;;;;;;5041770;28;20128;-65
2023/05/27 00:13:55;;;;;;;19.27;6.78;;;7.00;99.90;;;;;;5042560;28;20127;-65
2023/05/27 00:16:20;;;;;;;19.90;6.72;;;7.00;99.90;;;;;;5043789;28;20100;-66
2023/05/27 00:18:47;;;;;;;20.45;6.43;;;7.00;99.90;;;;;;5041960;28;20049;-65
2023/05/27 00:21:14;;;;;;;26.20;6.88;;;6.90;99.90;;;;;;5078294;28;20037;-66
2023/05/27 00:23:39;;;;;;;21.15;6.03;;;6.90;99.90;;;;;;5039270;28;20045;-65
2023/05/27 00:26:05;;;;;;;19.75;6.80;;;6.80;99.90;;;;;;5041385;28;20495;-65
2023/05/27 00:28:31;;;;;;;24.83;7.00;;;6.80;99.90;;;;;;5074413;28;20102;-66
2023/05/27 00:30:57;;;;;;;18.73;6.10;;;6.70;99.90;;;;;;5042176;28;20044;-66
2023/05/27 00:33:23;;;;;;;25.15;6.50;;;6.70;99.90;;;;;;5028831;28;20373;-66
2023/05/27 00:35:49;;;;;;;18.45;5.95;;;6.70;99.90;;;;;;5040322;28;21265;-66
2023/05/27 00:38:14;;;;;;;18.80;6.05;;;6.70;99.90;;;;;;5023809;28;20045;-65
2023/05/27 00:40:41;;;;;;;21.67;5.53;;;6.70;99.90;;;;;;5042616;28;20039;-65
2023/05/27 00:43:07;;;;;;;24.75;7.10;;;6.80;99.90;;;;;;5062075;28;20131;-66
2023/05/27 00:45:32;;;;;;;30.13;7.10;;;6.80;99.90;;;;;;5081784;28;20120;-66
2023/05/27 00:48:00;;;;;;;21.75;6.70;;;6.80;99.90;;;;;;5050930;28;20055;-65
2023/05/27 00:50:26;;;;;;;22.85;6.88;;;6.90;99.90;;;;;;5050066;28;20045;-65
2023/05/27 00:52:55;;;;;;;14.63;5.45;;;6.90;99.90;;;;;;5049260;28;20091;-66
2023/05/27 00:55:23;;;;;;;16.33;5.60;;;7.00;99.90;;;;;;5049843;28;20064;-65
2023/05/27 00:57:49;;;;;;;14.32;5.32;;;6.90;99.90;;;;;;5048625;28;20041;-65
2023/05/27 01:00:15;;;;;;;12.80;4.53;;;6.70;99.90;;;;;;5049914;28;20095;-65
2023/05/27 01:02:42;;;;;;;13.57;4.32;;;6.60;99.90;;;;;;5081054;28;20033;-66
2023/05/27 01:05:12;;;;;;;15.27;5.57;;;6.50;99.90;;;;;;5048932;28;20069;-65
2023/05/27 01:07:58;;;;;;;18.88;6.43;;;6.40;99.90;;;;;;5050279;28;20483;-66
2023/05/27 01:10:35;;;;;;;22.70;6.13;;;6.30;99.90;;;;;;5018464;28;20085;-66
2023/05/27 01:13:35;;;;;;;26.65;6.75;;;6.30;99.90;;;;;;5081852;28;20112;-66
2023/05/27 01:16:05;;;;;;;17.85;5.80;;;6.20;99.90;;;;;;5041249;28;20044;-65
2023/05/27 01:18:33;;;;;;;23.58;6.00;;;6.30;99.90;;;;;;5048387;28;20396;-66
2023/05/27 01:21:12;;;;;;;25.77;6.93;;;6.20;99.90;;;;;;5049143;28;20040;-65
2023/05/27 01:23:38;;;;;;;26.08;6.15;;;6.30;99.90;;;;;;5048562;28;20036;-65
2023/05/27 01:26:04;;;;;;;20.63;6.43;;;6.30;99.90;;;;;;5049976;28;20036;-65
2023/05/27 01:28:30;;;;;;;16.77;6.05;;;6.30;99.90;;;;;;5044436;28;20124;-65
2023/05/27 01:31:21;;;;;;;17.48;6.10;;;6.30;99.90;;;;;;5042454;28;20563;-65
2023/05/27 01:33:59;;;;;;;19.90;6.03;;;6.30;99.90;;;;;;5040192;28;20131;-66
2023/05/27 01:36:27;;;;;;;18.98;6.82;;;6.30;99.90;;;;;;5048670;28;20073;-66
2023/05/27 01:38:54;;;;;;;23.45;7.03;;;6.20;99.90;;;;;;5048094;28;20444;-65
2023/05/27 01:41:22;;;;;;;20.20;7.05;;;6.20;99.90;;;;;;5046733;28;20036;-66
2023/05/27 01:43:49;;;;;;;24.58;6.90;;;6.20;99.90;;;;;;5047855;28;20044;-65
2023/05/27 01:46:15;;;;;;;22.33;6.90;;;6.20;99.90;;;;;;5081937;28;20052;-66
2023/05/27 01:48:40;;;;;;;26.25;6.60;;;6.20;99.90;;;;;;5081719;28;20033;-65
2023/05/27 01:51:06;;;;;;;26.80;7.20;;;6.20;99.90;;;;;;5065464;28;20037;-65
2023/05/27 01:53:32;;;;;;;20.27;6.63;;;6.10;99.90;;;;;;5047945;28;20047;-65
2023/05/27 01:55:57;;;;;;;28.80;6.88;;;6.10;99.90;;;;;;5082791;28;20040;-65
2023/05/27 01:58:23;;;;;;;21.98;6.57;;;6.10;99.90;;;;;;5080905;28;20048;-66
2023/05/27 02:00:48;;;;;;;22.10;6.43;;;6.10;99.90;;;;;;5047802;28;20037;-66
2023/05/27 02:03:14;;;;;;;22.60;6.18;;;6.00;99.90;;;;;;5047867;28;20079;-66
2023/05/27 02:05:40;;;;;;;21.50;6.22;;;6.00;99.90;;;;;;5082864;28;20040;-65
2023/05/27 02:08:05;;;;;;;18.83;6.45;;;5.90;99.90;;;;;;5079649;28;20044;-66
2023/05/27 02:10:31;;;;;;;19.30;6.72;;;5.90;99.90;;;;;;5048686;28;20041;-66
2023/05/27 02:12:56;;;;;;;21.65;7.00;;;5.90;99.90;;;;;;5047860;28;20041;-65
2023/05/27 02:15:23;;;;;;;19.90;7.72;;;5.80;99.90;;;;;;5082630;28;20090;-65
2023/05/27 02:17:54;;;;;;;17.38;7.13;;;5.80;99.90;;;;;;5079106;28;20045;-65
2023/05/27 02:20:23;;;;;;;21.85;7.95;;;5.70;99.90;;;;;;5047285;28;20048;-66
2023/05/27 02:22:52;;;;;;;22.75;8.10;;;5.70;99.90;;;;;;5046192;28;20044;-66
2023/05/27 02:25:18;;;;;;;17.88;6.57;;;5.70;99.90;;;;;;5062203;28;20050;-65
2023/05/27 02:27:48;;;;;;;21.08;6.53;;;5.70;99.90;;;;;;5057828;28;20604;-65
2023/05/27 02:30:14;;;;;;;16.35;5.88;;;5.80;99.90;;;;;;5034012;28;20395;-65
2023/05/27 02:32:40;;;;;;;12.77;5.50;;;5.80;99.90;;;;;;5048946;28;20048;-65
2023/05/27 02:35:07;;;;;;;7.75;4.60;;;5.80;99.90;;;;;;5044121;28;20052;-65
2023/05/27 02:37:33;;;;;;;11.68;4.70;;;5.80;99.90;;;;;;5069077;28;20038;-65
2023/05/27 02:39:58;;;;;;;14.50;4.57;;;5.80;99.90;;;;;;5034717;28;20039;-65
2023/05/27 02:42:24;;;;;;;14.90;5.32;;;5.80;99.90;;;;;;5077043;28;20535;-65
2023/05/27 02:44:49;;;;;;;16.65;5.80;;;5.80;99.90;;;;;;5047485;28;20068;-65
2023/05/27 02:47:15;;;;;;;16.77;5.30;;;5.70;99.90;;;;;;5082685;28;20041;-65
2023/05/27 02:49:40;;;;;;;297.77;13.45;;;5.70;99.90;;;;;;5079657;28;20045;-65
2023/05/27 02:52:06;;;;;;;185.00;7.72;;;5.50;99.90;;;;;;5048326;28;20416;-65
2023/05/27 02:54:32;;;;;;;130.68;6.88;;;5.50;99.90;;;;;;5037401;28;20046;-65
2023/05/27 02:56:57;;;;;;;15.52;3.20;;;5.30;99.90;;;;;;5028937;28;20033;-65
2023/05/27 02:59:23;;;;;;;11.02;4.10;;;5.20;99.90;;;;;;5068250;28;20041;-65
2023/05/27 03:01:48;;;;;;;11.88;4.50;;;5.10;99.90;;;;;;5047052;28;20415;-65
2023/05/27 03:04:16;;;;;;;14.15;5.47;;;5.10;99.90;;;;;;5047345;28;20037;-65
2023/05/27 03:06:42;;;;;;;26.10;6.70;;;5.10;99.90;;;;;;5080702;28;20437;-65
2023/05/27 03:09:07;;;;;;;22.00;5.88;;;5.10;99.90;;;;;;5077331;28;20196;-65
2023/05/27 03:11:33;;;;;;;16.88;6.50;;;5.10;99.90;;;;;;5042098;28;20499;-65
2023/05/27 03:13:59;;;;;;;27.65;8.02;;;5.10;99.90;;;;;;5081557;28;20037;-65
2023/05/27 03:16:24;;;;;;;19.52;7.53;;;5.10;99.90;;;;;;5044405;28;20460;-65
2023/05/27 03:18:50;;;;;;;26.17;7.80;;;5.10;99.90;;;;;;5038343;28;20048;-65
2023/05/27 03:21:16;;;;;;;25.92;8.13;;;5.20;99.90;;;;;;5037533;28;20088;-65
2023/05/27 03:23:41;;;;;;;22.52;7.25;;;5.30;99.90;;;;;;5042274;28;20108;-65
2023/05/27 03:26:07;;;;;;;20.73;7.43;;;5.40;99.90;;;;;;5048601;28;20044;-65
2023/05/27 03:28:33;;;;;;;17.92;6.22;;;5.50;99.90;;;;;;5037809;28;20052;-65
2023/05/27 03:30:58;;;;;;;17.08;5.75;;;5.50;99.90;;;;;;5042499;28;20467;-66
2023/05/27 03:33:24;;;;;;;16.38;6.53;;;5.50;99.90;;;;;;5026376;28;20045;-65
2023/05/27 03:35:50;;;;;;;15.98;6.40;;;5.60;99.90;;;;;;5047890;28;20080;-65
2023/05/27 03:38:16;;;;;;;21.17;6.40;;;5.60;99.90;;;;;;5044142;28;20571;-65
2023/05/27 03:40:41;;;;;;;22.65;6.70;;;5.70;99.90;;;;;;5046103;28;20045;-65
2023/05/27 03:43:07;;;;;;;28.90;8.15;;;5.70;99.90;;;;;;5046221;28;20039;-65
2023/05/27 03:45:32;;;;;;;18.90;6.47;;;5.80;99.90;;;;;;5080150;28;20480;-65
2023/05/27 03:47:58;;;;;;;13.88;5.43;;;5.80;99.90;;;;;;5044905;28;20041;-65
2023/05/27 03:50:24;;;;;;;12.25;5.13;;;5.80;99.90;;;;;;5080005;28;20056;-65
2023/05/27 03:52:49;;;;;;;101.97;8.30;;;5.70;99.90;;;;;;5078901;28;20044;-65
2023/05/27 03:55:16;;;;;;;13.25;5.53;;;5.60;99.90;;;;;;5047258;28;20396;-66
2023/05/27 03:57:42;;;;;;;20.20;7.03;;;5.60;99.90;;;;;;5078635;28;20032;-65
2023/05/27 04:00:11;;;;;;;13.00;5.25;;;5.60;99.90;;;;;;5027602;28;20380;-65
2023/05/27 04:02:37;;;;;;;10.70;4.90;;;5.70;99.90;;;;;;5043889;28;20423;-65
2023/05/27 04:05:03;;;;;;;23.10;6.68;;;5.70;99.90;;;;;;5046058;28;20070;-65
2023/05/27 04:07:29;;;;;;;20.20;6.38;;;5.70;99.90;;;;;;5046535;28;20048;-65
2023/05/27 04:09:55;;;;;;;23.55;7.03;;;5.70;99.90;;;;;;5044940;28;20174;-65
2023/05/27 04:12:20;;;;;;;20.20;6.65;;;5.80;99.90;;;;;;5044023;28;20099;-65
2023/05/27 04:14:46;;;;;;;29.02;7.80;;;5.80;99.90;;;;;;5076806;28;20458;-65
2023/05/27 04:17:13;;;;;;;23.77;6.72;;;5.90;99.90;;;;;;5078554;28;20502;-65
2023/05/27 04:19:39;;;;;;;27.05;8.13;;;6.00;99.90;;;;;;5040607;28;20103;-65
2023/05/27 04:22:04;;;;;;;28.30;7.93;;;6.10;99.90;;;;;;5043634;28;20114;-65
2023/05/27 04:24:30;;;;;;;29.00;8.77;;;6.10;99.90;;;;;;5045563;28;20041;-66
2023/05/27 04:26:56;;;;;;;28.42;7.72;;;6.20;99.90;;;;;;5045810;28;20048;-65
2023/05/27 04:29:22;;;;;;;26.98;7.97;;;6.30;99.90;;;;;;5045866;28;20041;-65
2023/05/27 04:31:48;;;;;;;28.92;8.07;;;6.40;99.90;;;;;;5042438;28;20102;-66
2023/05/27 04:34:14;;;;;;;30.02;8.35;;;6.50;99.90;;;;;;5044796;28;20441;-65
2023/05/27 04:36:40;;;;;;;22.23;8.13;;;6.60;99.90;;;;;;5043928;28;20472;-65
2023/05/27 04:39:05;;;;;;;27.48;8.02;;;6.70;99.90;;;;;;5078916;28;20079;-65
2023/05/27 04:41:32;;;;;;;27.98;8.45;;;6.80;99.90;;;;;;5043784;28;20048;-65
2023/05/27 04:44:00;;;;;;;23.20;7.82;;;6.80;99.90;;;;;;5041146;28;20116;-65
2023/05/27 04:46:26;;;;;;;32.78;7.97;;;6.90;99.90;;;;;;5044194;28;20037;-65
2023/05/27 04:48:53;;;;;;;24.08;8.00;;;7.00;99.90;;;;;;5040080;28;20037;-65
2023/05/27 04:51:19;;;;;;;25.17;8.10;;;7.20;99.90;;;;;;5041480;28;20049;-65
2023/05/27 04:53:47;;;;;;;23.48;8.30;;;7.30;99.90;;;;;;5041124;28;20075;-65
2023/05/27 04:56:15;;;;;;;24.13;7.82;;;7.40;99.90;;;;;;5080221;28;20040;-65
2023/05/27 04:58:42;;;;;;;24.20;7.43;;;7.50;99.90;;;;;;5043415;28;20045;-65
2023/05/27 05:01:16;;;;;;;24.88;7.40;;;7.70;99.90;;;;;;5042947;28;20045;-66
2023/05/27 05:03:51;;;;;;;33.50;8.30;;;7.90;99.90;;;;;;5040712;28;20033;-65
2023/05/27 05:06:20;;;;;;;27.02;8.15;;;8.00;99.90;;;;;;5077836;28;20048;-65
2023/05/27 05:08:47;;;;;;;31.02;7.28;;;8.10;99.90;;;;;;5041049;28;20049;-65
2023/05/27 05:11:14;;;;;;;31.52;7.53;;;8.20;99.90;;;;;;5046315;28;20476;-66
2023/05/27 05:13:40;;;;;;;25.77;8.52;;;8.30;99.90;;;;;;5042870;28;20446;-65
2023/05/27 05:16:06;;;;;;;25.95;7.10;;;8.40;99.90;;;;;;5041568;28;20132;-65
2023/05/27 05:18:31;;;;;;;23.85;7.65;;;8.50;99.90;;;;;;5036044;28;20197;-65
2023/05/27 05:20:57;;;;;;;24.88;7.30;;;8.70;99.90;;;;;;5045409;28;20040;-66
2023/05/27 05:23:22;;;;;;;28.20;8.10;;;8.80;99.90;;;;;;5034789;28;20448;-65
2023/05/27 05:25:54;;;;;;;29.23;8.00;;;8.90;99.90;;;;;;5071108;28;20041;-66
2023/05/27 05:28:20;;;;;;;29.60;7.97;;;9.00;99.90;;;;;;5074444;28;20101;-65
2023/05/27 05:30:45;;;;;;;21.58;7.13;;;9.10;99.90;;;;;;5045575;28;20476;-65
2023/05/27 05:33:11;;;;;;;29.42;7.82;;;9.10;99.90;;;;;;5041920;28;20512;-66
2023/05/27 05:35:36;;;;;;;23.55;6.82;;;9.20;99.90;;;;;;5037404;28;20042;-65
2023/05/27 05:38:02;;;;;;;28.85;7.57;;;9.30;99.90;;;;;;5039456;28;20045;-65
2023/05/27 05:40:27;;;;;;;27.83;7.85;;;9.40;99.90;;;;;;5045334;28;20074;-66
2023/05/27 05:42:53;;;;;;;28.80;7.63;;;9.50;99.90;;;;;;5044260;28;20029;-66
2023/05/27 05:45:19;;;;;;;33.67;7.78;;;9.60;99.90;;;;;;5043162;28;20044;-65
2023/05/27 05:47:44;;;;;;;22.00;6.70;;;9.80;99.90;;;;;;5044628;28;20045;-65
2023/05/27 05:50:10;;;;;;;36.72;8.18;;;9.90;99.90;;;;;;5073287;28;20091;-65
2023/05/27 05:52:35;;;;;;;27.92;7.15;;;10.10;99.90;;;;;;5044748;28;20516;-65
2023/05/27 05:55:01;;;;;;;24.90;7.07;;;10.20;99.90;;;;;;5073648;28;20029;-66
2023/05/27 05:57:31;;;;;;;28.48;6.90;;;10.30;99.90;;;;;;5042641;28;20041;-66
2023/05/27 05:59:57;;;;;;;26.23;6.95;;;10.50;99.90;;;;;;5042658;28;20045;-66
2023/05/27 06:02:22;;;;;;;30.02;6.82;;;10.70;99.90;;;;;;5043704;28;20326;-66
2023/05/27 06:04:48;;;;;;;31.60;6.50;;;10.80;99.90;;;;;;5046421;28;20037;-65
2023/05/27 06:07:13;;;;;;;22.85;7.03;;;11.00;99.90;;;;;;5038878;28;20508;-65
2023/05/27 06:09:39;;;;;;;27.60;6.43;;;11.10;99.90;;;;;;5043431;28;20033;-65
2023/05/27 06:12:06;;;;;;;30.65;7.28;;;11.30;99.90;;;;;;5078313;28;20037;-64
2023/05/27 06:14:32;;;;;;;31.75;6.60;;;11.40;99.90;;;;;;5043711;28;20086;-66
2023/05/27 06:16:57;;;;;;;28.75;6.38;;;11.50;99.90;;;;;;5045034;28;20395;-65
2023/05/27 06:19:23;;;;;;;29.45;7.18;;;11.60;99.90;;;;;;5023502;28;20029;-65
2023/05/27 06:21:48;;;;;;;30.05;6.32;;;11.70;99.90;;;;;;5076229;28;20079;-65
2023/05/27 06:24:15;;;;;;;27.80;6.43;;;11.80;99.90;;;;;;5043821;28;20052;-64
2023/05/27 06:26:40;;;;;;;32.08;6.72;;;11.80;99.90;;;;;;5049253;28;20061;-65
2023/05/27 06:29:06;;;;;;;27.92;7.20;;;11.90;99.90;;;;;;5055136;28;20605;-64
2023/05/27 06:31:33;;;;;;;34.40;7.05;;;12.10;99.90;;;;;;5051524;28;20411;-66
2023/05/27 06:33:59;;;;;;;24.30;6.72;;;12.20;99.90;;;;;;5048489;28;20072;-66
2023/05/27 06:36:24;;;;;;;34.35;7.63;;;12.30;99.90;;;;;;5082331;28;20550;-65
2023/05/27 06:38:50;;;;;;;25.20;6.43;;;12.50;99.90;;;;;;5041555;28;20037;-65
2023/05/27 06:41:15;;;;;;;19.90;6.50;;;12.60;99.90;;;;;;5035389;28;20123;-66
2023/05/27 06:43:42;;;;;;;33.08;6.20;;;12.70;99.90;;;;;;5036837;28;20167;-65
2023/05/27 06:46:07;;;;;;;20.98;5.57;;;12.70;99.90;;;;;;5037728;28;20480;-63
2023/05/27 06:48:33;;;;;;;30.35;5.88;;;12.80;99.90;;;;;;5043963;28;20037;-64
2023/05/27 06:50:59;;;;;;;31.80;6.45;;;12.90;99.90;;;;;;5042455;28;20037;-67
2023/05/27 06:53:25;;;;;;;24.35;5.70;;;13.00;99.90;;;;;;5070035;28;20101;-66
2023/05/27 06:55:50;;;;;;;23.50;6.15;;;13.10;99.90;;;;;;5046732;28;20482;-64
2023/05/27 06:58:16;;;;;;;22.52;5.78;;;13.20;99.90;;;;;;5045523;28;20562;-66
2023/05/27 07:00:41;;;;;;;24.45;5.40;;;13.20;99.90;;;;;;5073934;28;20366;-65
2023/05/27 07:03:07;;;;;;;23.05;5.93;;;13.40;99.90;;;;;;5047102;28;20187;-65
2023/05/27 07:05:32;;;;;;;23.88;6.30;;;13.40;99.90;;;;;;5082572;28;20052;-65
2023/05/27 07:07:58;;;;;;;27.55;5.97;;;13.50;99.90;;;;;;5031060;28;20041;-64
2023/05/27 07:10:23;;;;;;;29.70;7.00;;;13.60;99.90;;;;;;5085470;28;20052;-64
2023/05/27 07:12:49;;;;;;;29.27;6.18;;;13.60;99.90;;;;;;5052488;28;20052;-64
2023/05/27 07:15:14;;;;;;;23.45;6.57;;;13.70;99.90;;;;;;5049675;28;20112;-65
2023/05/27 07:17:40;;;;;;;23.08;6.30;;;13.80;99.90;;;;;;5052089;28;20045;-64
2023/05/27 07:20:06;;;;;;;36.35;6.85;;;13.80;99.90;;;;;;5047869;28;20032;-63
2023/05/27 07:22:32;;;;;;;28.63;6.20;;;13.90;99.90;;;;;;5033827;28;20092;-64
2023/05/27 07:24:57;;;;;;;27.80;6.30;;;14.00;99.90;;;;;;5066023;28;20068;-65
2023/05/27 07:27:23;;;;;;;20.25;6.03;;;14.10;99.90;;;;;;5085565;28;20479;-64
2023/05/27 07:29:48;;;;;;;26.00;6.25;;;14.20;99.90;;;;;;5045773;28;20041;-64
2023/05/27 07:32:14;;;;;;;20.27;6.30;;;14.30;99.90;;;;;;5050343;28;20044;-64
2023/05/27 07:34:40;;;;;;;25.00;5.97;;;14.50;99.90;;;;;;5049322;28;20051;-65
2023/05/27 07:37:05;;;;;;;28.42;6.03;;;14.50;99.90;;;;;;5049655;28;20037;-64
2023/05/27 07:39:31;;;;;;;27.25;5.95;;;14.60;99.90;;;;;;5044749;28;20079;-65
2023/05/27 07:41:57;;;;;;;25.33;5.93;;;14.60;99.90;;;;;;5053250;28;20045;-65
2023/05/27 07:44:22;;;;;;;28.55;6.75;;;14.70;99.90;;;;;;5049564;28;20075;-64
2023/05/27 07:46:48;;;;;;;22.10;5.28;;;14.70;99.90;;;;;;5052629;28;20431;-64
2023/05/27 07:49:14;;;;;;;23.83;6.28;;;14.80;99.90;;;;;;5049847;28;20072;-64
2023/05/27 07:51:40;;;;;;;29.30;6.40;;;14.70;99.90;;;;;;5051756;28;20041;-64
2023/05/27 07:54:06;;;;;;;21.27;5.88;;;14.80;99.90;;;;;;5051952;28;20110;-65
2023/05/27 07:56:31;;;;;;;26.75;6.50;;;14.90;99.90;;;;;;5051307;28;20072;-66
2023/05/27 07:58:57;;;;;;;26.27;5.93;;;14.90;99.90;;;;;;5048299;28;20036;-66
2023/05/27 08:01:24;;;;;;;25.55;6.30;;;15.00;99.90;;;;;;5051712;28;20040;-65
2023/05/27 08:03:50;;;;;;;30.33;5.95;;;15.10;99.90;;;;;;5050261;28;20519;-64
2023/05/27 08:06:17;;;;;;;26.67;7.30;;;15.10;99.90;;;;;;5047927;28;20320;-65
2023/05/27 08:08:44;;;;;;;26.60;7.10;;;15.10;99.90;;;;;;5049061;28;20408;-65
2023/05/27 08:11:09;;;;;;;22.52;5.75;;;15.20;99.90;;;;;;5053234;28;20422;-65
2023/05/27 08:13:35;;;;;;;31.40;6.43;;;15.20;99.90;;;;;;5049389;28;20093;-65
2023/05/27 08:16:00;;;;;;;25.50;6.07;;;15.30;99.90;;;;;;5050915;28;20040;-65
2023/05/27 08:18:26;;;;;;;23.52;5.65;;;15.50;99.90;;;;;;5048008;28;20353;-65
2023/05/27 08:20:51;;;;;;;23.20;6.38;;;15.50;99.90;;;;;;5081073;28;20041;-64
2023/05/27 08:23:18;;;;;;;19.10;6.45;;;15.60;99.90;;;;;;5048557;28;20036;-65
2023/05/27 08:25:43;;;;;;;24.60;5.97;;;15.60;99.90;;;;;;5048662;28;20373;-66
2023/05/27 08:28:09;;;;;;;25.33;6.43;;;15.70;99.90;;;;;;5050118;28;20048;-65
2023/05/27 08:30:35;;;;;;;22.23;6.85;;;15.80;99.90;;;;;;5078102;28;20068;-64
2023/05/27 08:33:00;;;;;;;28.02;7.13;;;15.80;99.90;;;;;;5048135;28;20484;-65
2023/05/27 08:35:26;;;;;;;28.23;7.10;;;15.90;99.90;;;;;;5072112;28;20041;-65
2023/05/27 08:37:52;;;;;;;24.55;6.28;;;15.90;99.90;;;;;;5051128;28;20041;-65
2023/05/27 08:40:19;;;;;;;27.60;6.65;;;16.00;99.90;;;;;;5037291;28;20068;-64
2023/05/27 08:42:46;;;;;;;23.90;6.47;;;16.00;99.90;;;;;;5071130;28;20053;-64
2023/05/27 08:45:12;;;;;;;27.85;7.05;;;16.10;99.90;;;;;;5077207;28;20038;-66
2023/05/27 08:47:38;;;;;;;21.10;6.22;;;16.20;99.90;;;;;;5047196;28;20052;-66
2023/05/27 08:50:07;;;;;;;20.90;6.63;;;16.30;99.90;;;;;;5050434;28;20045;-65
2023/05/27 08:52:33;;;;;;;23.48;6.55;;;16.40;99.90;;;;;;5043764;28;20113;-65
2023/05/27 08:55:00;;;;;;;28.02;6.70;;;16.40;99.90;;;;;;5042339;28;20396;-64
2023/05/27 08:57:31;;;;;;;26.70;6.57;;;16.50;99.90;;;;;;5040326;28;20134;-66
2023/05/27 08:59:57;;;;;;;24.52;6.35;;;16.60;99.90;;;;;;5040818;28;20037;-65
2023/05/27 09:02:23;;;;;;;24.02;6.30;;;16.70;99.90;;;;;;5042051;28;20040;-65
2023/05/27 09:04:50;;;;;;;24.13;7.22;;;16.70;99.90;;;;;;5043891;28;20108;-63
2023/05/27 09:07:17;;;;;;;25.15;7.07;;;16.80;99.90;;;;;;5050295;28;20037;-65
2023/05/27 09:09:53;;;;;;;26.08;6.95;;;16.90;99.90;;;;;;5045921;28;20084;-64
2023/05/27 09:12:25;;;;;;;26.83;7.63;;;17.00;99.90;;;;;;5049247;28;20063;-65
2023/05/27 09:14:53;;;;;;;22.20;6.70;;;17.00;99.90;;;;;;5040362;28;20049;-65
2023/05/27 09:17:22;;;;;;;29.52;7.45;;;17.10;99.90;;;;;;5076800;28;20472;-66
2023/05/27 09:19:49;;;;;;;25.20;7.15;;;17.20;99.90;;;;;;5047137;28;20114;-66
2023/05/27 09:22:29;;;;;;;26.83;7.55;;;17.30;99.90;;;;;;5043742;28;20073;-65
2023/05/27 09:24:56;;;;;;;21.83;6.55;;;17.40;99.90;;;;;;5044837;28;20542;-65
2023/05/27 09:27:29;;;;;;;22.98;7.13;;;17.40;99.90;;;;;;5077891;28;20480;-64
2023/05/27 09:29:55;;;;;;;19.45;7.00;;;17.30;99.90;;;;;;5045496;28;20067;-64
2023/05/27 09:32:28;;;;;;;24.80;7.47;;;17.40;99.90;;;;;;5048939;28;20036;-65
2023/05/27 09:34:58;;;;;;;21.40;6.93;;;17.50;99.90;;;;;;5049942;28;20041;-65
2023/05/27 09:37:31;;;;;;;23.55;6.97;;;17.60;99.90;;;;;;5049648;28;20045;-65
2023/05/27 09:40:04;;;;;;;19.95;7.40;;;17.50;99.90;;;;;;5042796;28;20043;-66
2023/05/27 09:42:40;;;;;;;19.85;6.97;;;17.60;99.90;;;;;;5050175;28;20064;-66
2023/05/27 09:45:09;;;;;;;17.95;6.55;;;17.60;99.90;;;;;;5048014;28;20116;-65
2023/05/27 09:47:39;;;;;;;25.70;7.30;;;17.70;99.90;;;;;;5075956;28;20040;-63
2023/05/27 09:50:07;;;;;;;22.58;7.25;;;17.80;99.90;;;;;;5035871;28;20130;-65
2023/05/27 09:52:34;;;;;;;26.75;7.70;;;18.00;99.90;;;;;;5026710;28;20032;-65
2023/05/27 09:55:01;;;;;;;26.63;7.53;;;18.10;99.90;;;;;;5045472;28;20499;-64
2023/05/27 09:57:28;;;;;;;27.48;8.05;;;18.00;99.90;;;;;;5047644;28;20059;-64
2023/05/27 09:59:54;;;;;;;23.15;7.40;;;18.10;99.90;;;;;;5047004;28;20048;-64
2023/05/27 10:02:21;;;;;;;25.33;6.95;;;18.20;99.90;;;;;;5080140;28;20036;-64
2023/05/27 10:04:49;;;;;;;23.08;7.70;;;18.20;99.90;;;;;;5035000;28;20404;-65
2023/05/27 10:07:18;;;;;;;23.42;8.07;;;18.20;99.90;;;;;;5040733;28;20748;-65
2023/05/27 10:09:46;;;;;;;29.65;7.35;;;18.10;99.90;;;;;;5043001;28;20041;-65
2023/05/27 10:12:14;;;;;;;21.25;7.50;;;18.20;99.90;;;;;;5044716;28;20040;-65
2023/05/27 10:14:43;;;;;;;19.48;6.97;;;18.20;99.90;;;;;;5047369;28;20041;-65
2023/05/27 10:17:09;;;;;;;24.23;7.70;;;18.30;99.90;;;;;;5080663;28;20368;-65
2023/05/27 10:19:34;;;;;;;24.92;7.53;;;18.40;99.90;;;;;;5041540;28;20047;-66
2023/05/27 10:22:08;;;;;;;21.05;6.80;;;18.50;99.90;;;;;;5041963;28;20142;-65
2023/05/27 10:24:34;;;;;;;24.42;7.32;;;18.40;99.90;;;;;;5043433;28;20028;-66
2023/05/27 10:27:02;;;;;;;30.25;8.13;;;18.30;99.90;;;;;;5041416;28;20498;-65
2023/05/27 10:29:36;;;;;;;22.90;7.38;;;18.50;99.90;;;;;;5043044;28;20045;-65
2023/05/27 10:32:02;;;;;;;21.23;7.78;;;18.50;99.90;;;;;;5081617;28;20037;-64
2023/05/27 10:34:42;;;;;;;26.65;9.02;;;18.50;99.90;;;;;;5037749;28;20407;-65
2023/05/27 10:37:07;;;;;;;29.15;7.50;;;18.60;99.90;;;;;;5039902;28;20567;-65
2023/05/27 10:39:33;;;;;;;23.15;7.18;;;18.60;99.90;;;;;;5036933;28;20040;-66
2023/05/27 10:41:59;;;;;;;24.17;8.07;;;18.70;99.90;;;;;;5039320;28;20041;-66
2023/05/27 10:44:36;;;;;;;26.58;8.10;;;18.60;99.90;;;;;;5043479;28;20406;-65
2023/05/27 10:47:10;;;;;;;23.15;7.63;;;18.60;99.90;;;;;;5048361;28;20075;-65
2023/05/27 10:49:38;;;;;;;23.83;7.43;;;18.60;99.90;;;;;;5078840;28;20402;-66
2023/05/27 10:52:14;;;;;;;24.48;8.32;;;18.60;99.90;;;;;;5040507;28;20389;-65
2023/05/27 10:54:42;;;;;;;24.77;8.27;;;18.70;99.90;;;;;;5076309;28;20040;-65
2023/05/27 10:57:08;;;;;;;25.50;8.43;;;18.70;99.90;;;;;;5073697;28;20036;-65
2023/05/27 10:59:51;;;;;;;24.48;8.02;;;18.70;99.90;;;;;;5042094;28;20037;-65
2023/05/27 11:02:20;;;;;;;21.80;7.68;;;18.80;99.90;;;;;;5041793;28;20369;-64
2023/05/27 11:04:48;;;;;;;22.88;7.57;;;18.80;99.90;;;;;;5046506;28;20041;-64
2023/05/27 11:07:18;;;;;;;23.65;8.15;;;18.90;99.90;;;;;;5074395;28;20128;-65
2023/05/27 11:09:48;;;;;;;23.30;8.52;;;18.90;99.90;;;;;;5037319;28;20135;-65
2023/05/27 11:12:16;;;;;;;27.20;8.43;;;19.00;99.90;;;;;;5039161;28;20060;-66
2023/05/27 11:14:43;;;;;;;19.77;7.93;;;19.10;99.90;;;;;;5038396;28;20041;-66
2023/05/27 11:17:15;;;;;;;25.65;8.55;;;19.20;99.90;;;;;;5040383;28;20048;-66
2023/05/27 11:19:42;;;;;;;25.35;8.52;;;19.20;99.90;;;;;;5071549;28;20037;-65
2023/05/27 11:22:08;;;;;;;23.63;7.05;;;19.30;99.90;;;;;;5038707;28;20080;-66
2023/05/27 11:24:38;;;;;;;21.88;8.32;;;19.40;99.90;;;;;;5075851;28;20036;-65
2023/05/27 11:27:15;;;;;;;21.25;8.40;;;19.40;99.90;;;;;;5039243;28;20473;-66
2023/05/27 11:29:50;;;;;;;19.98;7.50;;;19.30;99.90;;;;;;5042398;28;20723;-66
2023/05/27 11:32:17;;;;;;;61.85;13.93;;;19.20;99.90;;;;;;5046215;28;20068;-65
2023/05/27 11:34:45;;;;;;;35.95;9.25;;;19.20;99.90;;;;;;5039289;28;20059;-66
2023/05/27 11:37:11;;;;;;;23.60;7.85;;;19.30;99.90;;;;;;5072747;28;20402;-67
2023/05/27 11:39:36;;;;;;;28.65;8.10;;;19.30;99.90;;;;;;5038155;28;20037;-65
2023/05/27 11:42:06;;;;;;;25.08;7.60;;;19.40;99.90;;;;;;5075191;28;20041;-65
2023/05/27 11:44:32;;;;;;;23.63;8.50;;;19.40;99.90;;;;;;5080099;28;20072;-65
2023/05/27 11:47:00;;;;;;;21.08;7.53;;;19.50;99.90;;;;;;5043315;28;20064;-66
2023/05/27 11:49:27;;;;;;;23.17;8.25;;;19.50;99.90;;;;;;5047014;28;20037;-65
2023/05/27 11:51:55;;;;;;;29.58;8.80;;;19.60;99.90;;;;;;5046828;28;20088;-66
2023/05/27 11:54:26;;;;;;;31.63;7.97;;;19.60;99.90;;;;;;5043366;28;20477;-67
2023/05/27 11:56:53;;;;;;;25.33;7.57;;;19.60;99.90;;;;;;5075703;28;20081;-66
2023/05/27 11:59:20;;;;;;;20.42;7.63;;;19.70;99.90;;;;;;5074797;28;20056;-66
2023/05/27 12:01:46;;;;;;;26.08;7.80;;;19.70;99.90;;;;;;5039947;28;20501;-66
2023/05/27 12:04:11;;;;;;;25.13;7.93;;;19.80;99.90;;;;;;5038215;28;20108;-65
2023/05/27 12:06:38;;;;;;;24.10;8.52;;;19.90;99.90;;;;;;5042978;28;20171;-65
2023/05/27 12:09:05;;;;;;;23.23;7.75;;;20.00;99.90;;;;;;5039800;28;20045;-66
2023/05/27 12:11:31;;;;;;;21.80;7.45;;;20.10;99.90;;;;;;5042111;28;20040;-65
2023/05/27 12:13:57;;;;;;;28.48;8.20;;;20.00;99.90;;;;;;5074285;28;20518;-65
2023/05/27 12:16:23;;;;;;;21.10;7.72;;;19.90;99.90;;;;;;5077277;28;20179;-66
2023/05/27 12:18:48;;;;;;;24.70;7.72;;;20.00;99.90;;;;;;5071774;28;20542;-66
2023/05/27 12:21:15;;;;;;;33.50;8.13;;;20.00;99.90;;;;;;5074552;28;20033;-66
2023/05/27 12:23:40;;;;;;;23.45;7.90;;;20.10;99.90;;;;;;5042936;28;20033;-65
2023/05/27 12:26:06;;;;;;;20.33;7.47;;;20.10;99.90;;;;;;5041748;28;20435;-66
2023/05/27 12:28:32;;;;;;;22.42;7.25;;;20.10;99.90;;;;;;5042545;28;20049;-67
2023/05/27 12:30:57;;;;;;;21.38;7.15;;;20.20;99.90;;;;;;5040677;28;20041;-66
2023/05/27 12:33:23;;;;;;;34.72;11.07;;;20.20;99.90;;;;;;5077596;28;20061;-66
2023/05/27 12:35:49;;;;;;;27.33;7.75;;;20.20;99.90;;;;;;5038450;28;20106;-67
2023/05/27 12:38:15;;;;;;;17.98;6.93;;;20.20;99.90;;;;;;5040750;28;20076;-66
2023/05/27 12:40:40;;;;;;;23.38;7.32;;;20.20;99.90;;;;;;5036325;28;20403;-66